Time;durP1;ratioP1;P1;durP2;ratioP2;P2;SDS_P1;SDS_P2;PMS_P1;PMS_P2;Temp;Humidity;BMP_temperature;BMP_pressure;BME280_temperature;BME280_humidity;BME280_pressure;Samples;Min_cycle;Max_cycle;Signal;HPM_P1;HPM_P2
2021/10/10 00:00:03;;;;;;;5.25;2.92;;;;;;;26.13;35.88;97515.88;4977020;28;20030;-33
2021/10/10 00:02:29;;;;;;;5.10;2.78;;;;;;;26.14;35.81;97513.19;4980477;28;20026;-32
2021/10/10 00:04:54;;;;;;;5.90;2.67;;;;;;;26.14;35.84;97515.81;4977579;28;20069;-33
2021/10/10 00:07:20;;;;;;;4.70;2.60;;;;;;;26.14;35.74;97514.94;4970752;28;20037;-30
2021/10/10 00:09:45;;;;;;;3.55;2.67;;;;;;;26.13;35.81;97507.97;4976735;28;20033;-33
2021/10/10 00:12:10;;;;;;;3.67;2.78;;;;;;;26.13;35.75;97513.25;4977225;28;20026;-34
2021/10/10 00:14:36;;;;;;;3.33;2.50;;;;;;;26.12;35.63;97511.53;4961153;28;20036;-28
2021/10/10 00:17:01;;;;;;;3.20;2.58;;;;;;;26.13;35.87;97513.25;4972122;28;20045;-33
2021/10/10 00:19:27;;;;;;;3.60;2.50;;;;;;;26.12;35.89;97511.53;4977069;28;20135;-31
2021/10/10 00:21:52;;;;;;;3.95;2.15;;;;;;;26.13;35.86;97513.25;4978616;28;20033;-30
2021/10/10 00:24:17;;;;;;;4.40;2.92;;;;;;;26.11;35.78;97510.66;4968517;28;20041;-34
2021/10/10 00:26:43;;;;;;;3.70;2.60;;;;;;;26.12;35.95;97508.91;4989960;28;20034;-37
2021/10/10 00:29:09;;;;;;;3.17;2.25;;;;;;;26.10;35.86;97504.56;4968626;28;20026;-36
2021/10/10 00:31:34;;;;;;;3.10;2.20;;;;;;;26.12;35.71;97511.53;4988780;28;20026;-34
2021/10/10 00:33:59;;;;;;;3.10;2.53;;;;;;;26.10;35.79;97504.56;4986081;28;20076;-32
2021/10/10 00:36:25;;;;;;;3.03;2.35;;;;;;;26.10;35.82;97504.56;4981923;28;20552;-37
2021/10/10 00:38:51;;;;;;;3.85;2.50;;;;;;;26.10;35.83;97499.31;4981821;28;20026;-34
2021/10/10 00:41:16;;;;;;;3.67;2.67;;;;;;;26.10;35.66;97504.56;4984111;28;20034;-35
2021/10/10 00:43:41;;;;;;;4.65;2.50;;;;;;;26.10;35.82;97499.31;4979945;28;20034;-34
2021/10/10 00:46:07;;;;;;;3.17;2.55;;;;;;;26.09;35.92;97494.97;4983673;28;20037;-32
2021/10/10 00:48:32;;;;;;;3.10;2.60;;;;;;;26.09;35.79;97500.22;4980956;28;20029;-37
2021/10/10 00:50:58;;;;;;;2.92;2.45;;;;;;;26.08;35.85;97495.91;4977166;28;20714;-37
2021/10/10 00:53:24;;;;;;;4.00;2.83;;;;;;;26.08;35.94;97493.28;4975565;28;20578;-33
2021/10/10 00:55:51;;;;;;;5.07;2.70;;;;;;;26.09;35.78;97497.59;5001347;28;20037;-36
2021/10/10 00:58:20;;;;;;;4.15;2.67;;;;;;;26.08;35.80;97495.91;4989113;28;20075;-33
2021/10/10 01:00:46;;;;;;;2.40;2.20;;;;;;;26.09;35.71;97486.25;4986610;28;20064;-34
2021/10/10 01:03:11;;;;;;;3.00;2.55;;;;;;;26.08;35.79;97485.41;4983823;28;20038;-37
2021/10/10 01:05:36;;;;;;;4.13;2.42;;;;;;;26.08;35.79;97490.66;5001865;28;20042;-34
2021/10/10 01:08:02;;;;;;;3.33;2.70;;;;;;;26.07;35.72;97499.47;4983768;28;20045;-31
2021/10/10 01:10:27;;;;;;;7.68;2.58;;;;;;;26.07;35.49;97494.19;4985686;28;20060;-28
2021/10/10 01:12:53;;;;;;;3.25;2.55;;;;;;;26.08;35.72;97500.28;4983964;28;20088;-32
2021/10/10 01:15:18;;;;;;;3.85;2.58;;;;;;;26.07;35.72;97488.94;4981792;28;20042;-33
2021/10/10 01:17:43;;;;;;;3.28;2.60;;;;;;;26.06;35.62;97484.63;4979885;28;20096;-35
2021/10/10 01:20:10;;;;;;;3.00;2.53;;;;;;;26.07;35.68;97488.94;4981917;28;20026;-34
2021/10/10 01:22:36;;;;;;;4.13;2.72;;;;;;;26.07;35.78;97485.47;4980342;28;21017;-34
2021/10/10 01:25:01;;;;;;;2.80;2.22;;;;;;;26.07;35.69;97483.69;4981223;28;20026;-30
2021/10/10 01:27:27;;;;;;;2.45;2.10;;;;;;;26.06;35.67;97483.75;4982494;28;20057;-34
2021/10/10 01:29:52;;;;;;;3.45;2.38;;;;;;;26.06;35.69;97479.38;4983457;28;20033;-32
2021/10/10 01:32:18;;;;;;;2.97;2.67;;;;;;;26.06;35.77;97482.00;4983997;28;20034;-36
2021/10/10 01:34:44;;;;;;;4.15;2.72;;;;;;;26.06;35.66;97475.88;4981899;28;20642;-31
2021/10/10 01:37:10;;;;;;;2.92;2.50;;;;;;;26.05;35.68;97469.75;4981538;28;20037;-31
2021/10/10 01:39:35;;;;;;;2.55;2.10;;;;;;;26.05;35.75;97469.75;4987756;28;20030;-34
2021/10/10 01:42:01;;;;;;;4.40;2.22;;;;;;;26.04;35.69;97468.06;4994113;28;20455;-30
2021/10/10 01:44:26;;;;;;;3.88;2.40;;;;;;;26.04;35.74;97470.69;4989425;28;20022;-31
2021/10/10 01:46:52;;;;;;;3.15;2.20;;;;;;;26.04;35.65;97462.81;4985718;28;20031;-39
2021/10/10 01:49:17;;;;;;;3.47;2.28;;;;;;;26.04;35.56;97456.69;4990197;28;20804;-36
2021/10/10 01:51:43;;;;;;;7.40;3.30;;;;;;;26.03;35.72;97453.22;4992593;28;20034;-30
2021/10/10 01:54:08;;;;;;;7.03;3.63;;;;;;;26.03;35.16;97455.84;4985488;28;20038;-31
2021/10/10 01:56:33;;;;;;;6.47;2.88;;;;;;;26.01;35.24;97457.69;4986962;28;20026;-34
2021/10/10 01:58:59;;;;;;;3.92;2.95;;;;;;;26.00;35.45;97450.72;4989359;28;20087;-32
2021/10/10 02:01:24;;;;;;;3.80;2.42;;;;;;;26.00;35.44;97458.59;4983381;28;20038;-35
2021/10/10 02:03:50;;;;;;;6.32;2.80;;;;;;;25.99;35.42;97454.28;4985765;28;20025;-36
2021/10/10 02:06:15;;;;;;;3.90;2.50;;;;;;;26.00;35.41;97445.47;4991750;28;20037;-28
2021/10/10 02:08:40;;;;;;;3.88;2.90;;;;;;;26.01;35.62;97456.84;4983513;28;20025;-32
2021/10/10 02:11:06;;;;;;;3.38;2.30;;;;;;;26.00;35.63;97445.47;4982698;28;20034;-31
2021/10/10 02:13:31;;;;;;;4.45;2.47;;;;;;;25.99;35.64;97449.03;4983398;28;20408;-36
2021/10/10 02:15:57;;;;;;;3.25;2.28;;;;;;;26.00;35.62;97448.09;4989567;28;20037;-36
2021/10/10 02:18:23;;;;;;;2.92;2.40;;;;;;;26.00;35.50;97450.72;4981872;28;20026;-30
2021/10/10 02:20:48;;;;;;;4.38;2.50;;;;;;;25.99;35.53;97454.28;4979522;28;20030;-34
2021/10/10 02:23:14;;;;;;;2.50;2.17;;;;;;;25.99;35.70;97449.03;4977071;28;20041;-29
2021/10/10 02:25:39;;;;;;;4.82;2.60;;;;;;;25.98;35.62;97452.59;4981663;28;20034;-31
2021/10/10 02:28:04;;;;;;;2.85;2.50;;;;;;;25.98;35.50;97449.97;4990894;28;20030;-31
2021/10/10 02:30:30;;;;;;;4.60;2.63;;;;;;;25.97;35.61;97450.84;4989285;28;20055;-32
2021/10/10 02:32:55;;;;;;;2.65;2.20;;;;;;;25.96;35.64;97454.41;4991630;28;20639;-37
2021/10/10 02:35:21;;;;;;;4.40;2.60;;;;;;;25.96;35.59;97454.41;4991759;28;20030;-31
2021/10/10 02:37:46;;;;;;;3.38;2.47;;;;;;;25.96;35.67;97457.91;4985062;28;20037;-35
2021/10/10 02:40:12;;;;;;;2.75;2.25;;;;;;;25.96;35.65;97462.28;4991029;28;20029;-34
2021/10/10 02:42:37;;;;;;;3.08;2.35;;;;;;;25.96;35.70;97464.91;4988086;28;20964;-34
2021/10/10 02:45:05;;;;;;;3.35;2.40;;;;;;;25.96;35.51;97464.91;4988105;28;20558;-34
2021/10/10 02:47:30;;;;;;;3.65;2.20;;;;;;;25.96;35.70;97471.03;4984867;28;20026;-37
2021/10/10 02:49:55;;;;;;;3.17;2.40;;;;;;;25.96;35.68;97462.28;4995758;28;20080;-35
2021/10/10 02:52:21;;;;;;;2.58;2.10;;;;;;;25.95;35.53;97458.81;4988439;28;20531;-30
2021/10/10 02:54:47;;;;;;;2.78;2.28;;;;;;;25.94;35.57;97454.47;4975405;28;20697;-34
2021/10/10 02:57:12;;;;;;;2.78;2.20;;;;;;;25.95;35.57;97463.22;4980091;28;20426;-34
2021/10/10 02:59:38;;;;;;;2.42;2.22;;;;;;;25.96;35.71;97459.66;4985910;28;20045;-32
2021/10/10 03:02:03;;;;;;;4.10;2.33;;;;;;;25.96;35.56;97459.66;4991936;28;20086;-34
2021/10/10 03:04:28;;;;;;;3.03;2.30;;;;;;;25.95;35.68;97457.97;4985215;28;20030;-37
2021/10/10 03:06:54;;;;;;;4.45;2.33;;;;;;;25.95;35.63;97458.81;4983454;28;20421;-31
2021/10/10 03:09:19;;;;;;;3.42;2.20;;;;;;;25.95;35.66;97463.22;4987391;28;20038;-35
2021/10/10 03:11:45;;;;;;;2.67;2.30;;;;;;;25.94;35.61;97454.47;4986745;28;20041;-36
2021/10/10 03:14:10;;;;;;;4.00;2.28;;;;;;;25.94;35.58;97457.09;4987031;28;20029;-30
2021/10/10 03:16:35;;;;;;;3.13;2.20;;;;;;;25.93;35.57;97460.66;4988863;28;20025;-31
2021/10/10 03:19:01;;;;;;;4.05;2.30;;;;;;;25.93;35.62;97465.91;4991091;28;20030;-35
2021/10/10 03:21:26;;;;;;;2.95;2.10;;;;;;;25.93;35.67;97460.66;4988551;28;20022;-33
2021/10/10 03:23:52;;;;;;;2.80;2.10;;;;;;;25.94;35.66;97469.38;4982887;28;20159;-31
2021/10/10 03:26:17;;;;;;;3.90;2.20;;;;;;;25.93;35.58;97471.16;4978703;28;20041;-36
2021/10/10 03:28:42;;;;;;;2.50;1.95;;;;;;;25.92;35.52;97464.19;4984355;28;20407;-30
2021/10/10 03:31:08;;;;;;;2.47;2.13;;;;;;;25.93;35.53;97465.06;4990675;28;20034;-29
2021/10/10 03:33:33;;;;;;;4.25;2.55;;;;;;;25.93;35.63;97465.06;4983171;28;20038;-35
2021/10/10 03:35:59;;;;;;;2.97;2.20;;;;;;;25.90;35.59;97460.78;4990947;28;20041;-34
2021/10/10 03:38:24;;;;;;;2.88;2.22;;;;;;;25.92;35.51;97458.06;4993998;28;20033;-31
2021/10/10 03:40:49;;;;;;;2.25;2.05;;;;;;;25.90;35.44;97452.88;4986733;28;20029;-36
2021/10/10 03:43:15;;;;;;;2.85;1.92;;;;;;;25.91;35.63;97452.00;4988958;28;20044;-33
2021/10/10 03:45:40;;;;;;;2.53;2.03;;;;;;;25.91;35.70;97456.38;4988051;28;21233;-33
2021/10/10 03:48:06;;;;;;;2.80;1.90;;;;;;;25.91;35.66;97451.13;4991140;28;20104;-34
2021/10/10 03:50:31;;;;;;;2.47;1.83;;;;;;;25.90;35.45;97455.50;4990768;28;20087;-35
2021/10/10 03:52:56;;;;;;;2.17;1.98;;;;;;;25.90;35.46;97449.44;4990769;28;20027;-32
2021/10/10 03:55:35;;;;;;;3.28;1.90;;;;;;;25.89;35.53;97450.34;4991242;28;20448;-29
2021/10/10 03:58:01;;;;;;;3.70;2.35;;;;;;;25.90;35.48;97449.44;4988146;28;20026;-32
2021/10/10 04:00:27;;;;;;;2.95;2.00;;;;;;;25.89;35.47;97448.56;4985919;28;20041;-35
2021/10/10 04:02:53;;;;;;;2.65;2.10;;;;;;;25.88;35.50;97449.50;4993553;28;20526;-32
2021/10/10 04:07:46;;;;;;;3.65;2.00;;;;;;;25.87;35.62;97450.41;4986778;28;20026;-37
2021/10/10 04:10:12;;;;;;;2.60;2.13;;;;;;;25.88;35.58;97452.13;4990581;28;20034;-37
2021/10/10 04:12:37;;;;;;;2.45;2.00;;;;;;;25.87;35.59;97455.66;4985558;28;21287;-31
2021/10/10 04:15:03;;;;;;;3.55;2.30;;;;;;;25.88;35.46;97448.63;4987916;28;20026;-28
2021/10/10 04:17:29;;;;;;;2.78;2.15;;;;;;;25.88;35.36;97451.25;4979596;28;20602;-31
2021/10/10 04:19:54;;;;;;;2.30;2.10;;;;;;;25.87;35.56;97446.94;4975793;28;20034;-38
2021/10/10 04:22:19;;;;;;;2.30;2.08;;;;;;;25.87;35.38;97445.16;4984753;28;20036;-31
2021/10/10 04:24:45;;;;;;;1.92;1.75;;;;;;;25.86;35.35;97445.22;4981808;28;20113;-36
2021/10/10 04:27:10;;;;;;;2.45;2.15;;;;;;;25.86;35.50;97447.84;4988633;28;20026;-34
2021/10/10 04:29:36;;;;;;;2.33;1.95;;;;;;;25.86;35.56;97447.84;4985193;28;20480;-32
2021/10/10 04:32:01;;;;;;;2.47;1.98;;;;;;;25.85;35.49;97449.63;4981789;28;20135;-31
2021/10/10 04:34:28;;;;;;;3.80;2.00;;;;;;;25.85;35.59;97456.66;4974991;28;20066;-35
2021/10/10 04:36:53;;;;;;;2.75;2.08;;;;;;;25.85;35.54;97447.00;4988301;28;20177;-32
2021/10/10 04:39:19;;;;;;;2.72;2.10;;;;;;;25.85;35.41;97454.03;4983595;28;20029;-32
2021/10/10 04:41:44;;;;;;;2.78;1.90;;;;;;;25.85;35.38;97451.41;4974369;28;20028;-28
2021/10/10 04:44:09;;;;;;;3.25;2.05;;;;;;;25.85;35.46;97443.53;4979063;28;20030;-34
2021/10/10 04:46:35;;;;;;;3.20;2.10;;;;;;;25.83;35.45;97439.19;4984670;28;20076;-30
2021/10/10 04:49:00;;;;;;;2.60;1.95;;;;;;;25.83;35.41;97439.19;4984039;28;20026;-35
2021/10/10 04:51:26;;;;;;;2.65;2.20;;;;;;;25.83;35.34;97454.94;4987148;28;20488;-33
2021/10/10 04:53:51;;;;;;;2.20;1.90;;;;;;;25.83;35.57;97447.06;4987934;28;20810;-29
2021/10/10 04:56:16;;;;;;;2.72;1.98;;;;;;;25.81;35.49;97441.03;4988024;28;20045;-33
2021/10/10 04:58:42;;;;;;;4.50;2.40;;;;;;;25.82;35.43;97442.72;4987281;28;20030;-34
2021/10/10 05:01:07;;;;;;;2.60;1.98;;;;;;;25.82;35.41;97442.72;4991294;28;20026;-37
2021/10/10 05:03:33;;;;;;;3.75;2.03;;;;;;;25.81;35.39;97441.03;4983719;28;20839;-34
2021/10/10 05:05:59;;;;;;;2.80;2.17;;;;;;;25.81;35.48;97451.53;4987980;28;21056;-34
2021/10/10 05:08:24;;;;;;;2.47;1.88;;;;;;;25.81;35.49;97441.03;4988379;28;20112;-31
2021/10/10 05:10:50;;;;;;;3.55;2.28;;;;;;;25.80;35.43;97441.94;4989997;28;20030;-35
2021/10/10 05:13:15;;;;;;;2.00;1.80;;;;;;;25.80;35.49;97444.56;4984181;28;20658;-36
2021/10/10 05:15:40;;;;;;;2.33;1.85;;;;;;;25.80;35.45;97447.22;4984637;28;20068;-34
2021/10/10 05:18:06;;;;;;;2.47;2.13;;;;;;;25.80;35.43;97449.84;4987618;28;20036;-30
2021/10/10 05:20:31;;;;;;;2.22;1.90;;;;;;;25.79;35.50;97445.50;4986761;28;20026;-37
2021/10/10 05:22:57;;;;;;;2.20;2.00;;;;;;;25.80;35.50;97448.97;4986645;28;20964;-31
2021/10/10 05:25:22;;;;;;;2.55;2.28;;;;;;;25.78;35.45;97445.56;4987728;28;20030;-32
2021/10/10 05:27:47;;;;;;;2.10;1.90;;;;;;;25.78;35.38;97449.03;4990102;28;20030;-34
2021/10/10 05:30:13;;;;;;;2.58;1.85;;;;;;;25.77;35.47;97447.31;4989036;28;20412;-34
2021/10/10 05:32:39;;;;;;;3.67;2.22;;;;;;;25.79;35.40;97450.75;4984658;28;20108;-29
2021/10/10 05:35:04;;;;;;;2.25;1.90;;;;;;;25.77;35.33;97447.31;4981062;28;20096;-36
2021/10/10 05:37:30;;;;;;;2.63;2.05;;;;;;;25.77;35.30;97444.69;4983236;28;20037;-33
2021/10/10 05:39:55;;;;;;;2.50;1.90;;;;;;;25.78;35.43;97451.66;4986977;28;20030;-33
2021/10/10 05:42:21;;;;;;;3.40;2.20;;;;;;;25.78;35.37;97450.81;4985742;28;20026;-29
2021/10/10 05:44:46;;;;;;;2.75;2.10;;;;;;;25.77;35.36;97451.72;4991416;28;20480;-30
2021/10/10 05:47:11;;;;;;;2.45;2.05;;;;;;;25.76;35.47;97450.88;4982015;28;20044;-37
2021/10/10 05:49:37;;;;;;;2.30;1.90;;;;;;;25.75;35.37;97451.81;4984961;28;21302;-35
2021/10/10 05:52:03;;;;;;;2.38;2.10;;;;;;;25.75;35.32;97451.81;4987334;28;20042;-32
2021/10/10 05:54:31;;;;;;;3.30;2.03;;;;;;;25.75;35.23;97451.81;4989273;28;20064;-36
2021/10/10 05:56:59;;;;;;;2.30;2.10;;;;;;;25.75;35.38;97461.44;4981730;28;20026;-31
2021/10/10 05:59:24;;;;;;;2.63;2.00;;;;;;;25.75;35.48;97459.69;4985437;28;20325;-29
2021/10/10 06:01:50;;;;;;;3.42;1.92;;;;;;;25.74;34.68;97460.56;4981957;28;20062;-32
2021/10/10 06:04:15;;;;;;;2.70;2.20;;;;;;;25.74;35.27;97463.19;4981208;28;20585;-30
2021/10/10 06:06:41;;;;;;;2.38;1.90;;;;;;;25.74;35.37;97463.19;4990188;28;20583;-31
2021/10/10 06:09:06;;;;;;;2.80;2.00;;;;;;;25.75;35.45;97467.56;4987832;28;20034;-37
2021/10/10 06:11:32;;;;;;;3.08;2.15;;;;;;;25.74;35.26;97460.56;5006601;28;20041;-32
2021/10/10 06:13:59;;;;;;;4.15;2.47;;;;;;;25.74;35.28;97465.81;4975640;28;20389;-37
2021/10/10 06:16:25;;;;;;;2.20;2.00;;;;;;;25.73;35.21;97458.88;4984478;28;21430;-33
2021/10/10 06:18:51;;;;;;;2.45;2.17;;;;;;;25.73;35.33;97466.75;4983017;28;20025;-35
2021/10/10 06:21:16;;;;;;;4.78;2.28;;;;;;;25.73;35.41;97463.28;4975396;28;20095;-31
2021/10/10 06:23:42;;;;;;;2.75;2.35;;;;;;;25.72;35.25;97466.81;4976775;28;20034;-32
2021/10/10 06:26:07;;;;;;;2.40;2.10;;;;;;;25.72;35.30;97466.81;4986231;28;20105;-31
2021/10/10 06:28:32;;;;;;;4.43;2.90;;;;;;;25.71;35.18;97465.97;4987744;28;20038;-32
2021/10/10 06:30:58;;;;;;;5.40;2.90;;;;;;;25.71;35.43;97471.22;4986595;28;20030;-37
2021/10/10 06:33:23;;;;;;;6.18;2.83;;;;;;;25.70;35.20;97474.75;4986369;28;20431;-31
2021/10/10 06:35:49;;;;;;;9.30;3.30;;;;;;;25.71;35.35;97473.84;4989247;28;20037;-35
2021/10/10 06:38:14;;;;;;;10.10;4.10;;;;;;;25.70;35.41;97475.59;4985493;28;20401;-34
2021/10/10 06:40:40;;;;;;;16.58;3.85;;;;;;;25.70;35.35;97472.13;4983393;28;20084;-33
2021/10/10 06:43:05;;;;;;;10.52;3.92;;;;;;;25.71;35.29;97481.72;4984154;28;20038;-33
2021/10/10 06:45:31;;;;;;;17.88;4.97;;;;;;;25.72;34.73;97488.69;4985479;28;20472;-35
2021/10/10 06:47:56;;;;;;;11.75;4.82;;;;;;;25.70;34.26;97480.00;4991484;28;20036;-39
2021/10/10 06:50:21;;;;;;;15.10;4.93;;;;;;;25.71;34.02;97484.34;4977728;28;20038;-39
2021/10/10 06:52:47;;;;;;;15.73;5.32;;;;;;;25.70;34.25;97485.25;4983092;28;20041;-34
2021/10/10 06:55:15;;;;;;;11.00;6.50;;;;;;;25.69;33.41;97483.53;4981738;28;20819;-37
2021/10/10 06:57:41;;;;;;;18.58;6.93;;;;;;;25.68;32.92;97485.34;4982085;28;20037;-35
2021/10/10 07:00:06;;;;;;;12.30;6.03;;;;;;;25.68;32.24;97489.72;4987063;28;20342;-31
2021/10/10 07:02:32;;;;;;;16.20;6.40;;;;;;;25.67;32.23;97491.47;4988241;28;20030;-35
2021/10/10 07:04:58;;;;;;;10.35;5.55;;;;;;;25.66;32.35;97492.41;4983163;28;20036;-31
2021/10/10 07:07:23;;;;;;;11.25;5.38;;;;;;;25.65;32.11;97493.31;4986068;28;20763;-37
2021/10/10 07:09:49;;;;;;;10.50;5.85;;;;;;;25.64;32.12;97496.00;4984430;28;20022;-35
2021/10/10 07:12:14;;;;;;;11.90;5.78;;;;;;;25.64;32.02;97490.75;4984095;28;20120;-35
2021/10/10 07:14:40;;;;;;;17.60;5.68;;;;;;;25.63;31.72;97494.31;4985851;28;20029;-32
2021/10/10 07:17:05;;;;;;;11.02;5.47;;;;;;;25.63;31.49;97494.31;4982637;28;20049;-34
2021/10/10 07:19:38;;;;;;;9.10;5.45;;;;;;;25.62;31.49;97495.22;4984388;28;20030;-31
2021/10/10 07:22:27;;;;;;;9.32;5.70;;;;;;;25.62;31.61;97497.84;4982959;28;20456;-35
2021/10/10 07:25:00;;;;;;;8.23;5.38;;;;;;;25.62;31.46;97492.59;4986496;28;20030;-31
2021/10/10 07:27:26;;;;;;;12.10;5.78;;;;;;;25.61;31.56;97491.75;4984671;28;20640;-34
2021/10/10 07:29:51;;;;;;;10.05;5.30;;;;;;;25.62;31.31;97492.59;4984549;28;20068;-32
2021/10/10 07:32:17;;;;;;;11.10;5.20;;;;;;;25.61;31.32;97493.50;4983919;28;20033;-37
2021/10/10 07:34:42;;;;;;;7.97;5.28;;;;;;;25.61;31.23;97504.88;4985221;28;20038;-32
2021/10/10 07:37:08;;;;;;;7.03;5.00;;;;;;;25.61;31.31;97502.25;4996779;28;20034;-35
2021/10/10 07:39:33;;;;;;;9.80;5.25;;;;;;;25.62;31.12;97495.22;4980502;28;20030;-37
2021/10/10 07:41:58;;;;;;;6.65;5.28;;;;;;;25.61;31.11;97493.50;5005411;28;20080;-30
2021/10/10 07:44:28;;;;;;;16.58;5.65;;;;;;;25.61;31.00;97502.25;4984988;28;20424;-34
2021/10/10 07:49:38;;;;;;;8.35;5.22;;;;;;;25.62;31.15;97497.84;4983616;28;20053;-32
2021/10/10 07:52:03;;;;;;;7.75;4.85;;;;;;;25.59;31.16;97492.72;4986766;28;20039;-35
2021/10/10 07:54:29;;;;;;;9.05;5.35;;;;;;;25.62;31.03;97503.94;4987446;28;20585;-38
2021/10/10 07:56:55;;;;;;;14.63;5.82;;;;;;;25.62;31.07;97503.94;4985020;28;20081;-33
2021/10/10 07:59:20;;;;;;;9.40;5.38;;;;;;;25.63;31.14;97503.03;4982581;28;20026;-33
2021/10/10 08:01:46;;;;;;;11.38;5.38;;;;;;;25.63;31.25;97504.81;4998749;28;20037;-31
2021/10/10 08:04:11;;;;;;;10.93;5.63;;;;;;;25.63;31.00;97499.56;4982222;28;20144;-35
2021/10/10 08:06:36;;;;;;;13.13;8.07;;;;;;;25.61;29.79;97506.63;4978904;28;20451;-35
2021/10/10 08:09:02;;;;;;;23.02;8.15;;;;;;;25.52;28.30;97507.84;4983092;28;20034;-37
2021/10/10 08:11:27;;;;;;;13.85;9.00;;;;;;;25.40;27.03;97509.19;4983465;28;20038;-33
2021/10/10 08:13:53;;;;;;;17.40;9.40;;;;;;;25.22;25.87;97501.13;4984803;28;20025;-30
2021/10/10 08:16:18;;;;;;;15.65;9.95;;;;;;;25.10;25.65;97512.09;4983772;28;20099;-30
2021/10/10 08:18:43;;;;;;;14.40;7.93;;;;;;;24.91;26.54;97503.16;4981196;28;20037;-34
2021/10/10 08:21:09;;;;;;;12.90;7.43;;;;;;;24.82;27.12;97502.66;4979068;28;20189;-32
2021/10/10 08:23:34;;;;;;;14.93;8.10;;;;;;;24.75;27.72;97497.63;4982147;28;20096;-31
2021/10/10 08:26:00;;;;;;;12.85;7.60;;;;;;;24.72;28.57;97497.75;4985071;28;20033;-34
2021/10/10 08:28:26;;;;;;;12.13;6.30;;;;;;;24.73;29.00;97504.72;4987190;28;20030;-29
2021/10/10 08:30:51;;;;;;;9.35;5.88;;;;;;;24.75;29.52;97502.03;4980329;28;20030;-29
2021/10/10 08:33:17;;;;;;;16.52;6.43;;;;;;;24.78;30.17;97501.88;4981666;28;20053;-33
2021/10/10 08:35:42;;;;;;;9.50;6.18;;;;;;;24.82;30.38;97500.03;4984065;28;20037;-36
2021/10/10 08:38:08;;;;;;;9.43;5.85;;;;;;;24.87;30.63;97505.97;4981019;28;20048;-34
2021/10/10 08:40:33;;;;;;;14.15;6.80;;;;;;;24.91;30.91;97503.16;4984772;28;20034;-35
2021/10/10 08:43:00;;;;;;;14.23;6.53;;;;;;;24.97;30.90;97512.56;4988177;28;20519;-35
2021/10/10 08:45:29;;;;;;;12.35;6.25;;;;;;;25.01;31.13;97511.53;4983087;28;20026;-37
2021/10/10 08:47:54;;;;;;;8.45;5.13;;;;;;;25.03;31.08;97504.50;4972638;28;20053;-32
2021/10/10 08:50:22;;;;;;;10.70;6.18;;;;;;;25.13;31.37;97517.25;4982032;28;20026;-34
2021/10/10 08:52:50;;;;;;;10.73;5.55;;;;;;;25.17;31.55;97518.84;4983202;28;20026;-36
2021/10/10 08:55:15;;;;;;;14.32;5.40;;;;;;;25.21;31.52;97509.06;4987191;28;20029;-32
2021/10/10 08:57:41;;;;;;;12.30;5.43;;;;;;;25.24;31.51;97520.28;4983645;28;20037;-36
2021/10/10 09:00:14;;;;;;;11.95;5.07;;;;;;;25.28;31.61;97514.00;4981764;28;20235;-36
2021/10/10 09:02:40;;;;;;;11.27;5.65;;;;;;;25.34;31.91;97509.41;4982623;28;22096;-36
2021/10/10 09:05:07;;;;;;;15.32;5.85;;;;;;;25.38;31.88;97505.75;4983533;28;20361;-36
2021/10/10 09:07:32;;;;;;;16.95;5.82;;;;;;;25.41;31.88;97506.50;4979944;28;20038;-35
2021/10/10 09:10:17;;;;;;;18.85;6.90;;;;;;;25.44;32.14;97509.00;4983754;28;20030;-36
2021/10/10 09:12:42;;;;;;;15.73;7.32;;;;;;;25.47;32.20;97505.38;4991719;28;20026;-33
2021/10/10 09:15:08;;;;;;;22.60;8.02;;;;;;;25.49;32.36;97503.56;4984222;28;20084;-37
2021/10/10 09:17:33;;;;;;;23.67;8.30;;;;;;;25.51;32.40;97501.72;4983430;28;20080;-35
2021/10/10 09:19:59;;;;;;;25.73;7.75;;;;;;;25.52;32.46;97503.41;4983063;28;20519;-33
2021/10/10 09:22:25;;;;;;;19.83;7.70;;;;;;;25.54;32.32;97509.47;4990102;28;20098;-31
2021/10/10 09:24:52;;;;;;;22.70;7.70;;;;;;;25.53;32.58;97505.16;4990399;28;20032;-36
2021/10/10 09:27:18;;;;;;;23.10;7.40;;;;;;;25.54;32.66;97512.09;4981125;28;20033;-34
2021/10/10 09:29:45;;;;;;;18.42;6.93;;;;;;;25.55;32.68;97503.31;4983379;28;20119;-30
2021/10/10 09:32:18;;;;;;;23.38;7.10;;;;;;;25.56;32.77;97505.03;4982913;28;20752;-34
2021/10/10 09:34:45;;;;;;;17.90;6.50;;;;;;;25.57;32.84;97506.78;4982152;28;20537;-31
2021/10/10 09:37:20;;;;;;;16.20;6.22;;;;;;;25.58;32.88;97504.97;4980622;28;20092;-32
2021/10/10 09:39:49;;;;;;;14.88;6.40;;;;;;;25.61;32.84;97506.63;4982077;28;20095;-31
2021/10/10 09:42:31;;;;;;;13.25;6.50;;;;;;;25.61;32.95;97506.63;4983000;28;20030;-31
2021/10/10 09:44:57;;;;;;;13.10;6.15;;;;;;;25.61;33.13;97506.63;4982494;28;20280;-33
2021/10/10 09:47:22;;;;;;;14.95;6.30;;;;;;;25.62;33.14;97505.72;4970294;28;20509;-37
2021/10/10 09:49:48;;;;;;;14.82;5.82;;;;;;;25.63;32.97;97504.81;4989819;28;20048;-35
2021/10/10 09:52:14;;;;;;;14.20;6.05;;;;;;;25.64;33.17;97498.63;4983116;28;20030;-34
2021/10/10 09:55:01;;;;;;;16.08;6.30;;;;;;;25.65;33.29;97513.47;4982858;28;20442;-29
2021/10/10 09:57:27;;;;;;;13.20;6.15;;;;;;;25.67;33.32;97506.41;4979420;28;20508;-37
2021/10/10 09:59:53;;;;;;;11.77;5.53;;;;;;;25.68;33.22;97513.34;4990979;28;20968;-32
2021/10/10 10:02:19;;;;;;;13.20;5.45;;;;;;;25.68;33.41;97506.34;5008085;28;20304;-36
2021/10/10 10:04:45;;;;;;;15.05;5.70;;;;;;;25.68;33.42;97506.34;4992814;28;20061;-35
2021/10/10 10:07:12;;;;;;;14.45;5.70;;;;;;;25.70;33.47;97501.00;4986918;28;20038;-34
2021/10/10 10:09:37;;;;;;;11.68;5.40;;;;;;;25.69;33.61;97502.78;4984785;28;20041;-32
2021/10/10 10:12:03;;;;;;;14.90;5.30;;;;;;;25.70;33.53;97499.22;4982343;28;20034;-38
2021/10/10 10:14:28;;;;;;;9.15;5.15;;;;;;;25.70;33.69;97493.13;4971526;28;20034;-28
2021/10/10 10:16:54;;;;;;;10.93;5.35;;;;;;;25.71;33.50;97492.22;4973658;28;20408;-31
2021/10/10 10:19:21;;;;;;;9.73;5.10;;;;;;;25.72;33.55;97498.31;4987387;28;20503;-31
2021/10/10 10:21:48;;;;;;;9.45;5.20;;;;;;;25.73;33.72;97493.00;4990965;28;20510;-37
2021/10/10 10:24:14;;;;;;;8.98;4.80;;;;;;;25.74;33.71;97499.13;4992936;28;20096;-32
2021/10/10 10:26:39;;;;;;;10.77;5.05;;;;;;;25.73;33.69;97503.50;5007487;28;20985;-36
2021/10/10 10:29:07;;;;;;;10.40;5.57;;;;;;;25.74;33.73;97492.06;4998952;28;20033;-36
2021/10/10 10:31:33;;;;;;;10.05;5.35;;;;;;;25.74;33.79;97492.06;4992762;28;20048;-32
2021/10/10 10:34:27;;;;;;;9.52;4.70;;;;;;;25.74;33.74;97497.31;4994273;28;20034;-35
2021/10/10 10:37:05;;;;;;;8.35;5.30;;;;;;;25.75;33.85;97492.94;4990510;28;20761;-34
2021/10/10 10:39:49;;;;;;;10.35;5.00;;;;;;;25.75;33.87;97493.81;4988949;28;20034;-32
2021/10/10 10:42:24;;;;;;;9.10;4.60;;;;;;;25.76;33.92;97492.88;4985579;28;20113;-34
2021/10/10 10:44:50;;;;;;;18.08;4.97;;;;;;;25.77;33.96;97496.34;4989565;28;20065;-31
2021/10/10 10:47:16;;;;;;;7.68;4.38;;;;;;;25.78;33.77;97492.81;4990998;28;20879;-35
2021/10/10 10:49:45;;;;;;;12.38;4.72;;;;;;;25.78;33.99;97488.41;4991510;28;20034;-34
2021/10/10 10:52:27;;;;;;;9.57;4.60;;;;;;;25.79;33.90;97490.13;4987590;28;20029;-34
2021/10/10 10:54:57;;;;;;;6.90;4.50;;;;;;;25.79;33.98;97484.88;4991180;28;20030;-34
2021/10/10 10:57:36;;;;;;;8.45;4.40;;;;;;;25.80;33.95;97480.47;4987072;28;20481;-35
2021/10/10 11:00:12;;;;;;;8.93;4.60;;;;;;;25.81;33.94;97484.78;4992284;28;20115;-36
2021/10/10 11:02:50;;;;;;;8.77;4.05;;;;;;;25.80;33.97;97476.09;4987252;28;20188;-36
2021/10/10 11:05:37;;;;;;;7.18;3.97;;;;;;;25.81;34.11;97483.03;4991895;28;21085;-31
2021/10/10 11:08:27;;;;;;;7.80;4.32;;;;;;;25.83;33.95;97485.59;4987704;28;20132;-33
2021/10/10 11:11:05;;;;;;;8.07;4.18;;;;;;;25.83;34.09;97486.44;4991763;28;20598;-32
2021/10/10 11:13:41;;;;;;;10.00;4.38;;;;;;;25.83;34.12;97481.19;4984497;28;20755;-32
2021/10/10 11:16:19;;;;;;;11.02;4.18;;;;;;;25.83;34.01;97482.97;4989293;28;20064;-32
2021/10/10 11:18:52;;;;;;;7.68;4.07;;;;;;;25.84;34.08;97484.66;4992135;28;20078;-32
2021/10/10 11:21:22;;;;;;;7.70;4.20;;;;;;;25.83;34.21;97475.94;4987271;28;20050;-30
2021/10/10 11:23:49;;;;;;;7.72;4.35;;;;;;;25.84;34.05;97474.16;4993803;28;20034;-29
2021/10/10 11:26:15;;;;;;;7.97;4.10;;;;;;;25.84;34.09;97474.16;4991520;28;20372;-32
2021/10/10 11:28:50;;;;;;;9.45;4.35;;;;;;;25.86;34.11;97474.09;4989544;28;20060;-31
2021/10/10 11:31:23;;;;;;;10.27;4.32;;;;;;;25.86;34.23;97467.09;4984827;28;20552;-34
2021/10/10 11:33:55;;;;;;;8.48;4.25;;;;;;;25.87;34.22;97465.31;4982665;28;20033;-33